sensor_id;sensor_type;location;lat;lon;timestamp;temperature;humidity
35593;DHT22;64447;52.140;5.602;2022-11-15T00:00:50;8.10;92.20
35593;DHT22;64447;52.140;5.602;2022-11-15T00:03:17;7.70;92.00
35593;DHT22;64447;52.140;5.602;2022-11-15T00:05:44;7.80;92.40
35593;DHT22;64447;52.140;5.602;2022-11-15T00:08:10;7.60;92.60
35593;DHT22;64447;52.140;5.602;2022-11-15T00:10:36;7.80;92.40
35593;DHT22;64447;52.140;5.602;2022-11-15T00:13:09;7.80;92.40
35593;DHT22;64447;52.140;5.602;2022-11-15T00:15:37;7.90;92.50
35593;DHT22;64447;52.140;5.602;2022-11-15T00:18:09;7.80;92.70
35593;DHT22;64447;52.140;5.602;2022-11-15T00:20:37;7.90;92.50
35593;DHT22;64447;52.140;5.602;2022-11-15T00:23:06;8.00;92.60
35593;DHT22;64447;52.140;5.602;2022-11-15T00:25:32;7.90;92.60
35593;DHT22;64447;52.140;5.602;2022-11-15T00:27:59;7.80;93.00
35593;DHT22;64447;52.140;5.602;2022-11-15T00:30:25;8.00;93.00
35593;DHT22;64447;52.140;5.602;2022-11-15T00:32:50;7.90;93.20
35593;DHT22;64447;52.140;5.602;2022-11-15T00:35:16;7.90;93.50
35593;DHT22;64447;52.140;5.602;2022-11-15T00:37:42;8.00;93.30
35593;DHT22;64447;52.140;5.602;2022-11-15T00:40:08;8.10;93.20
35593;DHT22;64447;52.140;5.602;2022-11-15T00:42:34;8.00;93.20
35593;DHT22;64447;52.140;5.602;2022-11-15T00:44:59;8.00;93.30
35593;DHT22;64447;52.140;5.602;2022-11-15T00:47:25;8.10;93.60
35593;DHT22;64447;52.140;5.602;2022-11-15T00:49:50;8.20;93.50
35593;DHT22;64447;52.140;5.602;2022-11-15T00:52:16;8.30;93.40
35593;DHT22;64447;52.140;5.602;2022-11-15T00:54:41;8.40;93.10
35593;DHT22;64447;52.140;5.602;2022-11-15T00:57:07;8.40;93.30
35593;DHT22;64447;52.140;5.602;2022-11-15T00:59:32;8.40;93.30
35593;DHT22;64447;52.140;5.602;2022-11-15T01:01:58;8.30;93.50
35593;DHT22;64447;52.140;5.602;2022-11-15T01:04:24;8.30;93.70
35593;DHT22;64447;52.140;5.602;2022-11-15T01:06:49;8.20;93.90
35593;DHT22;64447;52.140;5.602;2022-11-15T01:09:15;8.30;93.90
35593;DHT22;64447;52.140;5.602;2022-11-15T01:11:40;8.40;93.80
35593;DHT22;64447;52.140;5.602;2022-11-15T01:14:06;8.20;93.90
35593;DHT22;64447;52.140;5.602;2022-11-15T01:16:32;8.30;94.10
35593;DHT22;64447;52.140;5.602;2022-11-15T01:18:58;8.30;93.90
35593;DHT22;64447;52.140;5.602;2022-11-15T01:21:24;8.30;94.00
35593;DHT22;64447;52.140;5.602;2022-11-15T01:23:56;8.20;94.10
35593;DHT22;64447;52.140;5.602;2022-11-15T01:26:23;8.40;94.50
35593;DHT22;64447;52.140;5.602;2022-11-15T01:28:49;8.40;94.10
35593;DHT22;64447;52.140;5.602;2022-11-15T01:31:17;8.30;94.20
35593;DHT22;64447;52.140;5.602;2022-11-15T01:33:43;8.40;94.40
35593;DHT22;64447;52.140;5.602;2022-11-15T01:36:16;8.50;94.30
35593;DHT22;64447;52.140;5.602;2022-11-15T01:38:42;8.50;94.40
35593;DHT22;64447;52.140;5.602;2022-11-15T01:41:21;8.50;94.10
35593;DHT22;64447;52.140;5.602;2022-11-15T01:43:51;8.50;94.10
35593;DHT22;64447;52.140;5.602;2022-11-15T01:46:25;8.60;94.40
35593;DHT22;64447;52.140;5.602;2022-11-15T01:48:53;8.60;94.40
35593;DHT22;64447;52.140;5.602;2022-11-15T01:51:23;8.60;94.40
35593;DHT22;64447;52.140;5.602;2022-11-15T01:53:53;8.70;94.10
35593;DHT22;64447;52.140;5.602;2022-11-15T01:56:23;8.80;94.10
35593;DHT22;64447;52.140;5.602;2022-11-15T01:58:50;9.00;94.30
35593;DHT22;64447;52.140;5.602;2022-11-15T02:01:16;8.70;94.10
35593;DHT22;64447;52.140;5.602;2022-11-15T02:03:50;8.80;94.20
35593;DHT22;64447;52.140;5.602;2022-11-15T02:06:16;8.80;94.30
35593;DHT22;64447;52.140;5.602;2022-11-15T02:08:43;8.70;94.20
35593;DHT22;64447;52.140;5.602;2022-11-15T02:11:09;8.80;94.40
35593;DHT22;64447;52.140;5.602;2022-11-15T02:13:35;8.80;94.30
35593;DHT22;64447;52.140;5.602;2022-11-15T02:16:22;8.80;94.40
35593;DHT22;64447;52.140;5.602;2022-11-15T02:21:34;8.90;94.70
35593;DHT22;64447;52.140;5.602;2022-11-15T02:32:58;9.10;94.50
35593;DHT22;64447;52.140;5.602;2022-11-15T02:35:58;9.20;94.60
35593;DHT22;64447;52.140;5.602;2022-11-15T02:41:16;9.20;94.30
35593;DHT22;64447;52.140;5.602;2022-11-15T02:46:36;9.10;94.70
35593;DHT22;64447;52.140;5.602;2022-11-15T02:49:29;9.30;94.80
35593;DHT22;64447;52.140;5.602;2022-11-15T02:51:56;9.50;94.30
35593;DHT22;64447;52.140;5.602;2022-11-15T02:54:23;9.30;94.60
35593;DHT22;64447;52.140;5.602;2022-11-15T02:56:54;9.50;94.50
35593;DHT22;64447;52.140;5.602;2022-11-15T02:59:49;9.40;94.50
35593;DHT22;64447;52.140;5.602;2022-11-15T03:16:15;9.50;94.90
35593;DHT22;64447;52.140;5.602;2022-11-15T03:18:53;9.60;94.60
35593;DHT22;64447;52.140;5.602;2022-11-15T03:21:22;9.50;94.90
35593;DHT22;64447;52.140;5.602;2022-11-15T03:23:48;9.60;95.10
35593;DHT22;64447;52.140;5.602;2022-11-15T03:26:16;9.50;95.50
35593;DHT22;64447;52.140;5.602;2022-11-15T03:29:05;9.60;95.70
35593;DHT22;64447;52.140;5.602;2022-11-15T03:31:34;9.60;95.50
35593;DHT22;64447;52.140;5.602;2022-11-15T03:37:00;9.70;95.20
35593;DHT22;64447;52.140;5.602;2022-11-15T03:39:26;9.70;95.30
35593;DHT22;64447;52.140;5.602;2022-11-15T03:44:36;9.90;94.90
35593;DHT22;64447;52.140;5.602;2022-11-15T03:47:17;9.90;95.00
35593;DHT22;64447;52.140;5.602;2022-11-15T03:50:03;9.90;95.10
35593;DHT22;64447;52.140;5.602;2022-11-15T03:52:32;9.90;95.20
35593;DHT22;64447;52.140;5.602;2022-11-15T03:55:01;10.10;94.90
35593;DHT22;64447;52.140;5.602;2022-11-15T03:57:26;10.10;94.70
35593;DHT22;64447;52.140;5.602;2022-11-15T03:59:52;10.10;94.80
35593;DHT22;64447;52.140;5.602;2022-11-15T04:02:18;10.10;95.00
35593;DHT22;64447;52.140;5.602;2022-11-15T04:04:44;10.10;95.30
35593;DHT22;64447;52.140;5.602;2022-11-15T04:07:09;10.00;95.30
35593;DHT22;64447;52.140;5.602;2022-11-15T04:09:35;10.10;95.40
35593;DHT22;64447;52.140;5.602;2022-11-15T04:12:20;10.10;95.30
35593;DHT22;64447;52.140;5.602;2022-11-15T04:15:04;10.20;95.60
35593;DHT22;64447;52.140;5.602;2022-11-15T04:20:20;10.20;96.00
35593;DHT22;64447;52.140;5.602;2022-11-15T04:23:09;10.30;95.50
35593;DHT22;64447;52.140;5.602;2022-11-15T04:25:55;10.30;95.60
35593;DHT22;64447;52.140;5.602;2022-11-15T04:28:22;10.20;95.60
35593;DHT22;64447;52.140;5.602;2022-11-15T04:30:47;10.20;96.00
35593;DHT22;64447;52.140;5.602;2022-11-15T04:33:13;10.30;96.10
35593;DHT22;64447;52.140;5.602;2022-11-15T04:35:39;10.30;95.90
35593;DHT22;64447;52.140;5.602;2022-11-15T04:38:07;10.30;96.10
35593;DHT22;64447;52.140;5.602;2022-11-15T04:40:33;10.30;96.00
35593;DHT22;64447;52.140;5.602;2022-11-15T04:42:59;10.30;96.20
35593;DHT22;64447;52.140;5.602;2022-11-15T04:45:25;10.40;96.30
35593;DHT22;64447;52.140;5.602;2022-11-15T04:47:51;10.40;95.90
35593;DHT22;64447;52.140;5.602;2022-11-15T04:50:16;10.40;95.90
35593;DHT22;64447;52.140;5.602;2022-11-15T04:52:44;10.40;95.90
35593;DHT22;64447;52.140;5.602;2022-11-15T04:55:14;10.60;96.00
35593;DHT22;64447;52.140;5.602;2022-11-15T04:57:40;10.60;95.30
35593;DHT22;64447;52.140;5.602;2022-11-15T05:00:09;10.70;95.30
35593;DHT22;64447;52.140;5.602;2022-11-15T05:02:35;10.70;95.40
35593;DHT22;64447;52.140;5.602;2022-11-15T05:05:19;10.80;95.10
35593;DHT22;64447;52.140;5.602;2022-11-15T05:07:45;10.80;95.10
35593;DHT22;64447;52.140;5.602;2022-11-15T05:10:11;10.80;95.40
35593;DHT22;64447;52.140;5.602;2022-11-15T05:12:37;10.70;95.30
35593;DHT22;64447;52.140;5.602;2022-11-15T05:15:03;10.80;95.10
35593;DHT22;64447;52.140;5.602;2022-11-15T05:17:28;10.80;95.20
35593;DHT22;64447;52.140;5.602;2022-11-15T05:19:54;10.80;95.20
35593;DHT22;64447;52.140;5.602;2022-11-15T05:22:21;10.90;95.20
35593;DHT22;64447;52.140;5.602;2022-11-15T05:24:46;10.70;95.60
35593;DHT22;64447;52.140;5.602;2022-11-15T05:27:12;10.70;95.70
35593;DHT22;64447;52.140;5.602;2022-11-15T05:29:37;10.70;95.50
35593;DHT22;64447;52.140;5.602;2022-11-15T05:32:05;10.80;95.60
35593;DHT22;64447;52.140;5.602;2022-11-15T05:34:31;10.80;95.40
35593;DHT22;64447;52.140;5.602;2022-11-15T05:36:57;10.80;95.20
35593;DHT22;64447;52.140;5.602;2022-11-15T05:39:24;10.90;95.10
35593;DHT22;64447;52.140;5.602;2022-11-15T05:42:15;10.90;95.30
35593;DHT22;64447;52.140;5.602;2022-11-15T05:44:44;10.90;95.00
35593;DHT22;64447;52.140;5.602;2022-11-15T05:47:14;10.90;95.30
35593;DHT22;64447;52.140;5.602;2022-11-15T05:49:42;10.80;95.40
35593;DHT22;64447;52.140;5.602;2022-11-15T05:52:12;11.00;95.40
35593;DHT22;64447;52.140;5.602;2022-11-15T05:54:39;11.00;95.00
35593;DHT22;64447;52.140;5.602;2022-11-15T05:57:05;11.20;94.90
35593;DHT22;64447;52.140;5.602;2022-11-15T05:59:32;11.00;95.10
35593;DHT22;64447;52.140;5.602;2022-11-15T06:01:58;11.00;95.00
35593;DHT22;64447;52.140;5.602;2022-11-15T06:04:24;11.10;95.20
35593;DHT22;64447;52.140;5.602;2022-11-15T06:06:50;11.00;95.20
35593;DHT22;64447;52.140;5.602;2022-11-15T06:09:15;11.10;95.70
35593;DHT22;64447;52.140;5.602;2022-11-15T06:11:41;11.00;95.60
35593;DHT22;64447;52.140;5.602;2022-11-15T06:14:06;11.40;95.50
35593;DHT22;64447;52.140;5.602;2022-11-15T06:16:32;11.10;95.20
35593;DHT22;64447;52.140;5.602;2022-11-15T06:18:58;11.20;95.30
35593;DHT22;64447;52.140;5.602;2022-11-15T06:21:23;11.20;95.00
35593;DHT22;64447;52.140;5.602;2022-11-15T06:23:49;11.20;95.20
35593;DHT22;64447;52.140;5.602;2022-11-15T06:26:15;11.10;95.60
35593;DHT22;64447;52.140;5.602;2022-11-15T06:28:40;11.40;95.30
35593;DHT22;64447;52.140;5.602;2022-11-15T06:31:08;11.40;95.00
35593;DHT22;64447;52.140;5.602;2022-11-15T06:33:34;11.40;94.60
35593;DHT22;64447;52.140;5.602;2022-11-15T06:36:04;11.50;94.50
35593;DHT22;64447;52.140;5.602;2022-11-15T06:38:30;11.50;94.60
35593;DHT22;64447;52.140;5.602;2022-11-15T06:41:07;11.90;94.40
35593;DHT22;64447;52.140;5.602;2022-11-15T06:43:34;11.40;94.80
35593;DHT22;64447;52.140;5.602;2022-11-15T06:46:01;11.30;94.90
35593;DHT22;64447;52.140;5.602;2022-11-15T06:48:27;11.40;95.00
35593;DHT22;64447;52.140;5.602;2022-11-15T06:50:58;11.60;94.60
35593;DHT22;64447;52.140;5.602;2022-11-15T06:53:24;11.70;94.20
35593;DHT22;64447;52.140;5.602;2022-11-15T06:55:50;11.90;94.10
35593;DHT22;64447;52.140;5.602;2022-11-15T06:58:16;11.50;94.40
35593;DHT22;64447;52.140;5.602;2022-11-15T07:00:42;11.50;94.60
35593;DHT22;64447;52.140;5.602;2022-11-15T07:03:08;11.60;94.40
35593;DHT22;64447;52.140;5.602;2022-11-15T07:05:34;11.50;94.30
35593;DHT22;64447;52.140;5.602;2022-11-15T07:08:00;11.50;94.70
35593;DHT22;64447;52.140;5.602;2022-11-15T07:10:26;11.40;94.70
35593;DHT22;64447;52.140;5.602;2022-11-15T07:12:52;11.40;95.10
35593;DHT22;64447;52.140;5.602;2022-11-15T07:15:20;11.50;94.90
35593;DHT22;64447;52.140;5.602;2022-11-15T07:17:46;11.50;95.00
35593;DHT22;64447;52.140;5.602;2022-11-15T07:20:12;11.60;94.70
35593;DHT22;64447;52.140;5.602;2022-11-15T07:22:41;11.70;94.40
35593;DHT22;64447;52.140;5.602;2022-11-15T07:25:07;11.70;94.50
35593;DHT22;64447;52.140;5.602;2022-11-15T07:27:33;11.90;94.20
35593;DHT22;64447;52.140;5.602;2022-11-15T07:29:58;12.20;94.20
35593;DHT22;64447;52.140;5.602;2022-11-15T07:32:24;12.10;93.50
35593;DHT22;64447;52.140;5.602;2022-11-15T07:34:49;12.00;93.50
35593;DHT22;64447;52.140;5.602;2022-11-15T07:37:15;11.80;94.00
35593;DHT22;64447;52.140;5.602;2022-11-15T07:39:42;11.90;94.00
35593;DHT22;64447;52.140;5.602;2022-11-15T07:45:08;11.90;93.40
35593;DHT22;64447;52.140;5.602;2022-11-15T07:47:34;11.60;94.20
35593;DHT22;64447;52.140;5.602;2022-11-15T07:49:59;11.60;94.60
35593;DHT22;64447;52.140;5.602;2022-11-15T07:52:25;11.60;94.80
35593;DHT22;64447;52.140;5.602;2022-11-15T07:54:50;11.60;94.50
35593;DHT22;64447;52.140;5.602;2022-11-15T07:57:16;11.60;94.30
35593;DHT22;64447;52.140;5.602;2022-11-15T07:59:42;11.70;94.40
35593;DHT22;64447;52.140;5.602;2022-11-15T08:02:09;11.70;94.40
35593;DHT22;64447;52.140;5.602;2022-11-15T08:04:34;11.60;94.10
35593;DHT22;64447;52.140;5.602;2022-11-15T08:07:00;11.80;94.10
35593;DHT22;64447;52.140;5.602;2022-11-15T08:09:26;12.30;93.80
35593;DHT22;64447;52.140;5.602;2022-11-15T08:11:51;11.80;93.70
35593;DHT22;64447;52.140;5.602;2022-11-15T08:14:17;11.70;94.00
35593;DHT22;64447;52.140;5.602;2022-11-15T08:16:42;11.80;93.90
35593;DHT22;64447;52.140;5.602;2022-11-15T08:19:08;11.80;93.80
35593;DHT22;64447;52.140;5.602;2022-11-15T08:21:33;11.90;93.50
35593;DHT22;64447;52.140;5.602;2022-11-15T08:24:00;11.90;93.40
35593;DHT22;64447;52.140;5.602;2022-11-15T08:26:26;12.10;93.30
35593;DHT22;64447;52.140;5.602;2022-11-15T08:28:54;12.10;93.10
35593;DHT22;64447;52.140;5.602;2022-11-15T08:31:20;12.00;92.90
35593;DHT22;64447;52.140;5.602;2022-11-15T08:33:45;11.90;93.10
35593;DHT22;64447;52.140;5.602;2022-11-15T08:36:16;12.00;93.10
35593;DHT22;64447;52.140;5.602;2022-11-15T08:38:42;12.00;93.30
35593;DHT22;64447;52.140;5.602;2022-11-15T08:41:13;12.00;93.30
35593;DHT22;64447;52.140;5.602;2022-11-15T08:43:39;12.00;92.90
35593;DHT22;64447;52.140;5.602;2022-11-15T08:46:04;11.90;93.30
35593;DHT22;64447;52.140;5.602;2022-11-15T08:48:30;12.10;93.40
35593;DHT22;64447;52.140;5.602;2022-11-15T08:50:56;12.70;93.70
35593;DHT22;64447;52.140;5.602;2022-11-15T08:53:22;12.20;93.60
35593;DHT22;64447;52.140;5.602;2022-11-15T08:55:48;12.20;93.40
35593;DHT22;64447;52.140;5.602;2022-11-15T08:58:13;11.90;93.40
35593;DHT22;64447;52.140;5.602;2022-11-15T09:00:39;12.00;93.30
35593;DHT22;64447;52.140;5.602;2022-11-15T09:03:06;12.00;93.10
35593;DHT22;64447;52.140;5.602;2022-11-15T09:05:32;11.90;93.30
35593;DHT22;64447;52.140;5.602;2022-11-15T09:07:57;11.90;93.20
35593;DHT22;64447;52.140;5.602;2022-11-15T09:10:23;11.80;93.00
35593;DHT22;64447;52.140;5.602;2022-11-15T09:12:50;11.90;93.60
35593;DHT22;64447;52.140;5.602;2022-11-15T09:15:16;11.90;93.10
35593;DHT22;64447;52.140;5.602;2022-11-15T09:17:42;11.80;93.20
35593;DHT22;64447;52.140;5.602;2022-11-15T09:20:08;11.90;93.20
35593;DHT22;64447;52.140;5.602;2022-11-15T09:22:34;11.90;93.10
35593;DHT22;64447;52.140;5.602;2022-11-15T09:25:02;11.90;93.10
35593;DHT22;64447;52.140;5.602;2022-11-15T09:27:29;11.70;93.20
35593;DHT22;64447;52.140;5.602;2022-11-15T09:29:54;11.80;93.60
35593;DHT22;64447;52.140;5.602;2022-11-15T09:32:20;11.70;93.20
35593;DHT22;64447;52.140;5.602;2022-11-15T09:34:46;11.70;93.30
35593;DHT22;64447;52.140;5.602;2022-11-15T09:37:11;11.70;93.50
35593;DHT22;64447;52.140;5.602;2022-11-15T09:39:37;11.60;93.20
35593;DHT22;64447;52.140;5.602;2022-11-15T09:45:12;11.60;93.00
35593;DHT22;64447;52.140;5.602;2022-11-15T09:50:39;11.80;93.30
35593;DHT22;64447;52.140;5.602;2022-11-15T09:53:13;11.90;93.00
35593;DHT22;64447;52.140;5.602;2022-11-15T09:56:03;11.90;92.80
35593;DHT22;64447;52.140;5.602;2022-11-15T10:01:19;11.70;92.50
35593;DHT22;64447;52.140;5.602;2022-11-15T10:03:47;11.80;92.60
35593;DHT22;64447;52.140;5.602;2022-11-15T10:06:25;11.90;92.20
35593;DHT22;64447;52.140;5.602;2022-11-15T10:11:28;12.00;91.60
35593;DHT22;64447;52.140;5.602;2022-11-15T10:13:58;12.00;91.30
35593;DHT22;64447;52.140;5.602;2022-11-15T10:24:42;12.00;90.70
35593;DHT22;64447;52.140;5.602;2022-11-15T10:27:14;11.90;90.70
35593;DHT22;64447;52.140;5.602;2022-11-15T10:29:48;12.00;90.80
35593;DHT22;64447;52.140;5.602;2022-11-15T10:32:16;12.00;90.70
35593;DHT22;64447;52.140;5.602;2022-11-15T10:34:42;12.00;90.60
35593;DHT22;64447;52.140;5.602;2022-11-15T10:37:07;12.10;90.70
35593;DHT22;64447;52.140;5.602;2022-11-15T10:39:33;12.10;90.50
35593;DHT22;64447;52.140;5.602;2022-11-15T10:42:25;12.20;90.40
35593;DHT22;64447;52.140;5.602;2022-11-15T10:44:51;12.20;89.90
35593;DHT22;64447;52.140;5.602;2022-11-15T10:47:29;12.10;88.80
35593;DHT22;64447;52.140;5.602;2022-11-15T10:49:58;12.30;88.30
35593;DHT22;64447;52.140;5.602;2022-11-15T10:52:24;12.30;88.10
35593;DHT22;64447;52.140;5.602;2022-11-15T10:57:24;12.10;87.70
35593;DHT22;64447;52.140;5.602;2022-11-15T11:00:04;12.10;88.30
35593;DHT22;64447;52.140;5.602;2022-11-15T11:02:38;12.30;88.30
35593;DHT22;64447;52.140;5.602;2022-11-15T11:05:20;12.30;88.30
35593;DHT22;64447;52.140;5.602;2022-11-15T11:07:56;12.30;88.80
35593;DHT22;64447;52.140;5.602;2022-11-15T11:10:23;12.30;88.30
35593;DHT22;64447;52.140;5.602;2022-11-15T11:12:48;12.30;87.50
35593;DHT22;64447;52.140;5.602;2022-11-15T11:15:15;12.30;87.30
35593;DHT22;64447;52.140;5.602;2022-11-15T11:17:51;12.30;87.10
35593;DHT22;64447;52.140;5.602;2022-11-15T11:20:25;12.30;87.40
35593;DHT22;64447;52.140;5.602;2022-11-15T11:28:37;12.30;86.20
35593;DHT22;64447;52.140;5.602;2022-11-15T11:31:13;12.30;85.20
35593;DHT22;64447;52.140;5.602;2022-11-15T11:34:55;12.30;85.10
35593;DHT22;64447;52.140;5.602;2022-11-15T11:37:14;12.30;83.50
35593;DHT22;64447;52.140;5.602;2022-11-15T11:42:24;12.40;83.40
35593;DHT22;64447;52.140;5.602;2022-11-15T11:47:40;12.30;83.30
35593;DHT22;64447;52.140;5.602;2022-11-15T11:50:25;12.30;83.10
35593;DHT22;64447;52.140;5.602;2022-11-15T11:55:52;12.30;81.50
35593;DHT22;64447;52.140;5.602;2022-11-15T11:58:38;12.30;82.00
35593;DHT22;64447;52.140;5.602;2022-11-15T12:01:17;12.30;82.30
35593;DHT22;64447;52.140;5.602;2022-11-15T12:03:51;12.30;82.40
35593;DHT22;64447;52.140;5.602;2022-11-15T12:06:30;12.30;82.70
35593;DHT22;64447;52.140;5.602;2022-11-15T12:12:06;12.40;81.70
35593;DHT22;64447;52.140;5.602;2022-11-15T12:14:47;12.50;81.40
35593;DHT22;64447;52.140;5.602;2022-11-15T12:17:15;12.40;80.90
35593;DHT22;64447;52.140;5.602;2022-11-15T12:19:41;12.50;81.30
35593;DHT22;64447;52.140;5.602;2022-11-15T12:25:36;12.50;80.60
35593;DHT22;64447;52.140;5.602;2022-11-15T12:30:44;12.50;79.60
35593;DHT22;64447;52.140;5.602;2022-11-15T12:36:05;12.50;79.60
35593;DHT22;64447;52.140;5.602;2022-11-15T12:41:43;12.40;79.50
35593;DHT22;64447;52.140;5.602;2022-11-15T12:47:03;12.40;79.00
35593;DHT22;64447;52.140;5.602;2022-11-15T12:59:51;12.50;78.00
35593;DHT22;64447;52.140;5.602;2022-11-15T13:25:32;12.70;76.30
35593;DHT22;64447;52.140;5.602;2022-11-15T13:28:23;12.80;76.10
35593;DHT22;64447;52.140;5.602;2022-11-15T13:30:55;12.60;76.30
35593;DHT22;64447;52.140;5.602;2022-11-15T13:33:31;12.60;76.10
35593;DHT22;64447;52.140;5.602;2022-11-15T13:36:03;12.60;75.80
35593;DHT22;64447;52.140;5.602;2022-11-15T13:38:34;12.60;76.60
35593;DHT22;64447;52.140;5.602;2022-11-15T13:43:41;12.80;75.30
35593;DHT22;64447;52.140;5.602;2022-11-15T13:48:44;12.50;75.40
35593;DHT22;64447;52.140;5.602;2022-11-15T13:51:47;12.60;76.30
35593;DHT22;64447;52.140;5.602;2022-11-15T13:54:29;12.60;75.70
35593;DHT22;64447;52.140;5.602;2022-11-15T13:57:00;12.50;76.20
35593;DHT22;64447;52.140;5.602;2022-11-15T14:01:55;12.50;77.40
35593;DHT22;64447;52.140;5.602;2022-11-15T14:04:23;12.60;76.30
35593;DHT22;64447;52.140;5.602;2022-11-15T14:06:54;12.60;76.00
35593;DHT22;64447;52.140;5.602;2022-11-15T14:09:30;12.80;75.40
35593;DHT22;64447;52.140;5.602;2022-11-15T14:11:58;12.70;74.90
35593;DHT22;64447;52.140;5.602;2022-11-15T14:14:27;12.50;75.20
35593;DHT22;64447;52.140;5.602;2022-11-15T14:16:58;12.70;75.70
35593;DHT22;64447;52.140;5.602;2022-11-15T14:22:11;12.50;75.50
35593;DHT22;64447;52.140;5.602;2022-11-15T14:24:37;12.50;75.60
35593;DHT22;64447;52.140;5.602;2022-11-15T14:27:22;12.50;75.20
35593;DHT22;64447;52.140;5.602;2022-11-15T14:29:48;12.50;75.60
35593;DHT22;64447;52.140;5.602;2022-11-15T14:32:20;12.50;75.70
35593;DHT22;64447;52.140;5.602;2022-11-15T14:34:47;12.50;75.10
35593;DHT22;64447;52.140;5.602;2022-11-15T14:39:44;12.60;74.80
35593;DHT22;64447;52.140;5.602;2022-11-15T14:42:10;12.60;74.50
35593;DHT22;64447;52.140;5.602;2022-11-15T14:44:35;12.60;74.50
35593;DHT22;64447;52.140;5.602;2022-11-15T14:47:01;12.60;74.60
35593;DHT22;64447;52.140;5.602;2022-11-15T14:49:26;12.60;74.50
35593;DHT22;64447;52.140;5.602;2022-11-15T14:51:52;12.70;74.40
35593;DHT22;64447;52.140;5.602;2022-11-15T14:54:17;12.60;74.40
35593;DHT22;64447;52.140;5.602;2022-11-15T14:56:43;12.60;74.30
35593;DHT22;64447;52.140;5.602;2022-11-15T14:59:09;12.60;74.40
35593;DHT22;64447;52.140;5.602;2022-11-15T15:01:34;12.60;74.10
35593;DHT22;64447;52.140;5.602;2022-11-15T15:04:00;12.80;74.20
35593;DHT22;64447;52.140;5.602;2022-11-15T15:06:26;12.90;73.80
35593;DHT22;64447;52.140;5.602;2022-11-15T15:08:52;12.70;73.50
35593;DHT22;64447;52.140;5.602;2022-11-15T15:11:21;12.70;73.80
35593;DHT22;64447;52.140;5.602;2022-11-15T15:13:48;12.60;74.00
35593;DHT22;64447;52.140;5.602;2022-11-15T15:16:13;12.70;73.90
35593;DHT22;64447;52.140;5.602;2022-11-15T15:18:39;12.60;74.50
35593;DHT22;64447;52.140;5.602;2022-11-15T15:23:46;12.70;74.30
35593;DHT22;64447;52.140;5.602;2022-11-15T15:26:11;12.60;73.80
35593;DHT22;64447;52.140;5.602;2022-11-15T15:28:37;12.60;74.50
35593;DHT22;64447;52.140;5.602;2022-11-15T15:31:04;12.60;74.50
35593;DHT22;64447;52.140;5.602;2022-11-15T15:33:31;12.60;73.90
35593;DHT22;64447;52.140;5.602;2022-11-15T15:35:56;12.40;73.50
35593;DHT22;64447;52.140;5.602;2022-11-15T15:38:22;12.50;74.00
35593;DHT22;64447;52.140;5.602;2022-11-15T15:40:48;12.40;73.70
35593;DHT22;64447;52.140;5.602;2022-11-15T15:43:14;12.40;73.90
35593;DHT22;64447;52.140;5.602;2022-11-15T15:45:40;12.80;74.90
35593;DHT22;64447;52.140;5.602;2022-11-15T15:48:11;12.30;73.80
35593;DHT22;64447;52.140;5.602;2022-11-15T15:50:39;12.50;73.60
35593;DHT22;64447;52.140;5.602;2022-11-15T15:53:05;12.50;73.30
35593;DHT22;64447;52.140;5.602;2022-11-15T15:55:31;12.50;72.90
35593;DHT22;64447;52.140;5.602;2022-11-15T15:57:57;12.60;72.80
35593;DHT22;64447;52.140;5.602;2022-11-15T16:00:24;12.50;72.90
35593;DHT22;64447;52.140;5.602;2022-11-15T16:02:50;12.50;72.90
35593;DHT22;64447;52.140;5.602;2022-11-15T16:05:16;12.50;72.70
35593;DHT22;64447;52.140;5.602;2022-11-15T16:07:43;12.60;72.80
35593;DHT22;64447;52.140;5.602;2022-11-15T16:10:30;12.60;72.20
35593;DHT22;64447;52.140;5.602;2022-11-15T16:12:57;12.80;72.60
35593;DHT22;64447;52.140;5.602;2022-11-15T16:15:25;12.60;72.30
35593;DHT22;64447;52.140;5.602;2022-11-15T16:17:55;12.60;72.60
35593;DHT22;64447;52.140;5.602;2022-11-15T16:20:37;12.50;72.80
35593;DHT22;64447;52.140;5.602;2022-11-15T16:23:07;12.50;73.60
35593;DHT22;64447;52.140;5.602;2022-11-15T16:25:58;12.50;73.70
35593;DHT22;64447;52.140;5.602;2022-11-15T16:28:27;12.50;74.20
35593;DHT22;64447;52.140;5.602;2022-11-15T16:31:05;12.50;74.40
35593;DHT22;64447;52.140;5.602;2022-11-15T16:33:31;12.40;74.60
35593;DHT22;64447;52.140;5.602;2022-11-15T16:35:56;12.40;75.00
35593;DHT22;64447;52.140;5.602;2022-11-15T16:38:22;12.50;75.10
35593;DHT22;64447;52.140;5.602;2022-11-15T16:40:48;12.50;75.20
35593;DHT22;64447;52.140;5.602;2022-11-15T16:43:14;12.40;75.70
35593;DHT22;64447;52.140;5.602;2022-11-15T16:45:39;12.40;75.60
35593;DHT22;64447;52.140;5.602;2022-11-15T16:48:05;12.50;75.90
35593;DHT22;64447;52.140;5.602;2022-11-15T16:50:33;12.50;75.70
35593;DHT22;64447;52.140;5.602;2022-11-15T16:53:04;12.50;76.10
35593;DHT22;64447;52.140;5.602;2022-11-15T16:55:29;12.50;76.20
35593;DHT22;64447;52.140;5.602;2022-11-15T16:57:55;12.60;76.10
35593;DHT22;64447;52.140;5.602;2022-11-15T17:00:24;12.60;76.00
35593;DHT22;64447;52.140;5.602;2022-11-15T17:02:51;12.60;76.20
35593;DHT22;64447;52.140;5.602;2022-11-15T17:05:19;12.60;76.30
35593;DHT22;64447;52.140;5.602;2022-11-15T17:07:49;12.60;76.70
35593;DHT22;64447;52.140;5.602;2022-11-15T17:10:18;12.60;76.90
35593;DHT22;64447;52.140;5.602;2022-11-15T17:12:45;12.60;77.50
35593;DHT22;64447;52.140;5.602;2022-11-15T17:15:12;12.70;77.40
35593;DHT22;64447;52.140;5.602;2022-11-15T17:17:38;12.80;78.30
35593;DHT22;64447;52.140;5.602;2022-11-15T17:20:04;12.70;78.90
35593;DHT22;64447;52.140;5.602;2022-11-15T17:22:35;12.60;79.90
35593;DHT22;64447;52.140;5.602;2022-11-15T17:25:01;12.50;80.60
35593;DHT22;64447;52.140;5.602;2022-11-15T17:27:26;12.50;81.20
35593;DHT22;64447;52.140;5.602;2022-11-15T17:29:52;12.40;81.60
35593;DHT22;64447;52.140;5.602;2022-11-15T17:32:17;12.50;81.90
35593;DHT22;64447;52.140;5.602;2022-11-15T17:34:43;12.40;82.10
35593;DHT22;64447;52.140;5.602;2022-11-15T17:37:08;12.40;83.20
35593;DHT22;64447;52.140;5.602;2022-11-15T17:39:34;12.40;83.90
35593;DHT22;64447;52.140;5.602;2022-11-15T17:42:00;12.40;84.60
35593;DHT22;64447;52.140;5.602;2022-11-15T17:44:25;12.40;84.80
35593;DHT22;64447;52.140;5.602;2022-11-15T17:46:51;12.40;85.00
35593;DHT22;64447;52.140;5.602;2022-11-15T17:49:16;12.30;85.50
35593;DHT22;64447;52.140;5.602;2022-11-15T17:51:42;12.30;85.80
35593;DHT22;64447;52.140;5.602;2022-11-15T17:54:09;12.50;86.80
35593;DHT22;64447;52.140;5.602;2022-11-15T17:56:38;12.20;86.90
35593;DHT22;64447;52.140;5.602;2022-11-15T17:59:04;12.20;87.10
35593;DHT22;64447;52.140;5.602;2022-11-15T18:01:32;12.30;87.20
35593;DHT22;64447;52.140;5.602;2022-11-15T18:03:59;12.30;86.90
35593;DHT22;64447;52.140;5.602;2022-11-15T18:06:27;12.40;86.50
35593;DHT22;64447;52.140;5.602;2022-11-15T18:08:55;12.40;86.80
35593;DHT22;64447;52.140;5.602;2022-11-15T18:11:29;12.20;87.50